createdAt,value
2019-04-19T00:00:38.401Z,1014.67
2019-04-19T00:01:45.052Z,1014.64
2019-04-19T00:02:43.693Z,1014.67
2019-04-19T00:03:40.753Z,1014.70
2019-04-19T00:04:48.486Z,1014.71
2019-04-19T00:05:42.961Z,1014.59
2019-04-19T00:06:42.449Z,1014.67
2019-04-19T00:07:46.863Z,1014.62
2019-04-19T00:09:01.511Z,1014.67
2019-04-19T00:09:50.054Z,1014.66
2019-04-19T00:10:49.519Z,1014.72
2019-04-19T00:11:47.746Z,1014.74
2019-04-19T00:12:48.661Z,1014.63
2019-04-19T00:13:43.035Z,1014.73
2019-04-19T00:14:42.356Z,1014.63
2019-04-19T00:15:43.470Z,1014.68
2019-04-19T00:16:42.827Z,1014.74
2019-04-19T00:17:43.941Z,1014.61
2019-04-19T00:19:02.385Z,1014.75
2019-04-19T00:20:05.073Z,1014.63
2019-04-19T00:21:03.025Z,1014.66
2019-04-19T00:22:10.604Z,1014.59
2019-04-19T00:22:59.379Z,1014.70
2019-04-19T00:23:48.349Z,1014.64
2019-04-19T00:24:45.841Z,1014.65
2019-04-19T00:25:45.428Z,1014.64
2019-04-19T00:26:46.722Z,1014.70
2019-04-19T00:27:52.484Z,1014.65
2019-04-19T00:28:53.709Z,1014.65
2019-04-19T00:29:54.644Z,1014.69
2019-04-19T00:30:58.062Z,1014.66
2019-04-19T00:32:04.705Z,1014.67
2019-04-19T00:33:02.629Z,1014.73
2019-04-19T00:33:51.465Z,1014.68
2019-04-19T00:34:48.448Z,1014.68
2019-04-19T00:35:49.521Z,1014.73
2019-04-19T00:36:48.896Z,1014.70
2019-04-19T00:37:53.200Z,1014.82
2019-04-19T00:39:06.227Z,1014.73
2019-04-19T00:40:07.861Z,1014.83
2019-04-19T00:41:09.295Z,1014.73
2019-04-19T00:42:10.382Z,1014.74
2019-04-19T00:43:06.489Z,1014.79
2019-04-19T00:44:04.163Z,1014.78
2019-04-19T00:45:08.002Z,1014.78
2019-04-19T00:46:14.675Z,1014.84
2019-04-19T00:47:10.820Z,1014.85
2019-04-19T00:48:02.962Z,1014.83
2019-04-19T00:49:05.544Z,1014.77
2019-04-19T00:50:07.704Z,1014.80
2019-04-19T00:51:04.987Z,1014.76
2019-04-19T00:52:05.465Z,1014.82
2019-04-19T00:53:09.240Z,1014.83
2019-04-19T00:54:06.309Z,1014.77
2019-04-19T00:55:04.302Z,1014.68
2019-04-19T00:56:04.492Z,1014.73
2019-04-19T00:57:01.553Z,1014.73
2019-04-19T00:58:04.020Z,1014.77
2019-04-19T00:59:01.935Z,1014.73
2019-04-19T00:59:56.888Z,1014.74
2019-04-19T01:00:59.435Z,1014.75
2019-04-19T01:02:04.732Z,1014.75
2019-04-19T01:02:59.455Z,1014.73
2019-04-19T01:03:57.466Z,1014.73
2019-04-19T01:05:03.679Z,1014.81
2019-04-19T01:06:04.560Z,1014.80
2019-04-19T01:07:00.957Z,1014.69
2019-04-19T01:08:01.843Z,1014.78
2019-04-19T01:09:15.416Z,1014.72
2019-04-19T01:10:15.408Z,1014.64
2019-04-19T01:11:12.874Z,1014.77
2019-04-19T01:12:10.725Z,1014.76
2019-04-19T01:13:11.109Z,1014.70
2019-04-19T01:14:14.021Z,1014.77
2019-04-19T01:15:10.653Z,1014.79
2019-04-19T01:16:08.804Z,1014.82
2019-04-19T01:17:17.464Z,1014.85
2019-04-19T01:18:15.370Z,1014.76
2019-04-19T01:19:07.435Z,1014.81
2019-04-19T01:20:06.339Z,1014.77
2019-04-19T01:21:02.969Z,1014.79
2019-04-19T01:22:08.166Z,1014.89
2019-04-19T01:23:07.127Z,1014.78
2019-04-19T01:24:04.929Z,1014.82
2019-04-19T01:25:10.476Z,1014.81
2019-04-19T01:26:05.883Z,1014.85
2019-04-19T01:27:02.654Z,1014.88
2019-04-19T01:28:08.814Z,1014.81
2019-04-19T01:29:08.460Z,1014.82
2019-04-19T01:30:03.412Z,1014.84
2019-04-19T01:31:10.123Z,1014.82
2019-04-19T01:32:08.715Z,1014.79
2019-04-19T01:33:05.426Z,1014.77
2019-04-19T01:34:10.996Z,1014.88
2019-04-19T01:35:09.227Z,1014.86
2019-04-19T01:36:04.250Z,1014.81
2019-04-19T01:37:11.305Z,1014.74
2019-04-19T01:38:06.661Z,1014.78
2019-04-19T01:39:17.920Z,1014.79
2019-04-19T01:40:16.769Z,1014.74
2019-04-19T01:41:20.774Z,1014.78
2019-04-19T01:42:24.757Z,1014.85
2019-04-19T01:43:23.884Z,1014.77
2019-04-19T01:44:24.040Z,1014.86
2019-04-19T01:45:20.090Z,1014.85
2019-04-19T01:46:19.053Z,1014.77
2019-04-19T01:47:29.377Z,1014.79
2019-04-19T01:48:24.693Z,1014.84
2019-04-19T01:49:12.862Z,1014.79
2019-04-19T01:50:17.351Z,1014.86
2019-04-19T01:51:21.293Z,1014.82
2019-04-19T01:52:18.236Z,1014.79
2019-04-19T01:53:25.347Z,1014.75
2019-04-19T01:54:26.734Z,1014.79
2019-04-19T01:55:18.013Z,1014.89
2019-04-19T01:56:13.186Z,1014.83
2019-04-19T01:57:11.498Z,1014.77
2019-04-19T01:58:13.983Z,1014.77
2019-04-19T01:59:09.334Z,1014.80
2019-04-19T02:00:11.871Z,1014.82
2019-04-19T02:01:16.544Z,1014.79
2019-04-19T02:02:15.557Z,1014.81
2019-04-19T02:03:11.072Z,1014.81
2019-04-19T02:04:16.768Z,1014.78
2019-04-19T02:05:15.975Z,1014.83
2019-04-19T02:06:14.693Z,1014.79
2019-04-19T02:07:18.087Z,1014.81
2019-04-19T02:08:14.386Z,1014.75
2019-04-19T02:09:24.582Z,1014.79
2019-04-19T02:10:22.351Z,1014.72
2019-04-19T02:11:26.851Z,1014.80
2019-04-19T02:12:26.091Z,1014.81
2019-04-19T02:13:23.185Z,1014.79
2019-04-19T02:14:19.196Z,1014.79
2019-04-19T02:15:19.458Z,1014.79
2019-04-19T02:16:18.462Z,1014.80
2019-04-19T02:17:16.507Z,1014.80
2019-04-19T02:18:21.885Z,1014.92
2019-04-19T02:20:15.819Z,1014.86
2019-04-19T02:21:21.324Z,1014.96
2019-04-19T02:22:21.130Z,1014.78
2019-04-19T02:23:17.235Z,1014.84
2019-04-19T02:24:14.735Z,1014.84
2019-04-19T02:25:21.429Z,1014.85
2019-04-19T02:26:19.618Z,1014.84
2019-04-19T02:28:23.078Z,1014.88
2019-04-19T02:29:20.295Z,1014.93
2019-04-19T02:30:29.234Z,1014.89
2019-04-19T02:31:37.425Z,1014.86
2019-04-19T02:32:34.016Z,1014.96
2019-04-19T02:33:47.676Z,1014.98
2019-04-19T02:34:41.576Z,1014.96
2019-04-19T02:35:46.361Z,1015.02
2019-04-19T02:36:52.130Z,1014.96
2019-04-19T02:37:43.716Z,1015.01
2019-04-19T02:38:46.880Z,1014.94
2019-04-19T02:39:45.127Z,1015.03
2019-04-19T02:41:49.733Z,1014.97
2019-04-19T02:42:48.307Z,1015.04
2019-04-19T02:43:54.168Z,1015.08
2019-04-19T02:44:57.956Z,1014.97
2019-04-19T02:46:02.227Z,1015.03
2019-04-19T02:46:51.965Z,1015.00
2019-04-19T02:47:44.408Z,1015.11
2019-04-19T02:48:54.495Z,1015.12
2019-04-19T02:51:08.632Z,1015.13
2019-04-19T02:53:01.780Z,1015.18
2019-04-19T02:53:47.043Z,1015.18
2019-04-19T02:54:54.096Z,1015.16
2019-04-19T02:55:56.344Z,1015.14
2019-04-19T02:57:50.748Z,1015.09
2019-04-19T02:58:53.051Z,1015.16
2019-04-19T02:59:59.595Z,1015.13
2019-04-19T03:01:58.691Z,1015.19
2019-04-19T03:02:52.838Z,1015.19
2019-04-19T03:03:50.272Z,1015.18
2019-04-19T03:05:11.225Z,1015.23
2019-04-19T03:05:59.336Z,1015.25
2019-04-19T03:06:36.884Z,1015.23
2019-04-19T03:07:26.115Z,1015.32
2019-04-19T03:08:27.173Z,1015.26
2019-04-19T03:09:32.923Z,1015.28
2019-04-19T03:10:29.217Z,1015.22
2019-04-19T03:11:45.780Z,1015.22
2019-04-19T03:12:48.932Z,1015.23
2019-04-19T03:13:41.164Z,1015.24
2019-04-19T03:14:45.180Z,1015.18
2019-04-19T03:15:59.693Z,1015.20
2019-04-19T03:16:56.865Z,1015.27
2019-04-19T03:17:44.529Z,1015.29
2019-04-19T03:18:43.666Z,1015.18
2019-04-19T03:19:44.216Z,1015.25
2019-04-19T03:20:42.598Z,1015.23
2019-04-19T03:21:42.959Z,1015.23
2019-04-19T03:22:51.691Z,1015.29
2019-04-19T03:23:45.120Z,1015.32
2019-04-19T03:24:50.953Z,1015.23
2019-04-19T03:25:45.245Z,1015.20
2019-04-19T03:27:47.364Z,1015.30
2019-04-19T03:28:40.513Z,1015.33
2019-04-19T03:29:38.842Z,1015.26
2019-04-19T03:31:01.544Z,1015.37
2019-04-19T03:32:11.603Z,1015.38
2019-04-19T03:33:04.296Z,1015.35
2019-04-19T03:34:06.530Z,1015.39
2019-04-19T03:35:54.010Z,1015.39
2019-04-19T03:36:47.640Z,1015.31
2019-04-19T03:37:56.563Z,1015.37
2019-04-19T03:38:52.707Z,1015.43
2019-04-19T03:40:07.210Z,1015.41
2019-04-19T03:40:53.554Z,1015.44
2019-04-19T03:43:10.677Z,1015.43
2019-04-19T03:43:57.218Z,1015.40
2019-04-19T03:45:00.376Z,1015.46
2019-04-19T03:45:56.637Z,1015.43
2019-04-19T03:46:59.308Z,1015.53
2019-04-19T03:47:56.999Z,1015.48
2019-04-19T03:48:51.884Z,1015.44
2019-04-19T03:49:58.369Z,1015.47
2019-04-19T03:51:00.571Z,1015.44
2019-04-19T03:52:04.282Z,1015.43
2019-04-19T03:52:55.758Z,1015.43
2019-04-19T03:54:14.389Z,1015.50
2019-04-19T03:55:00.049Z,1015.49
2019-04-19T03:56:06.274Z,1015.50
2019-04-19T03:56:55.107Z,1015.50
2019-04-19T03:57:50.407Z,1015.54
2019-04-19T03:58:41.729Z,1015.53
2019-04-19T03:59:41.441Z,1015.47
2019-04-19T04:00:41.141Z,1015.49
2019-04-19T04:01:46.484Z,1015.42
2019-04-19T04:02:45.918Z,1015.46
2019-04-19T04:03:46.364Z,1015.48
2019-04-19T04:04:48.168Z,1015.54
2019-04-19T04:05:47.467Z,1015.47
2019-04-19T04:06:45.603Z,1015.53
2019-04-19T04:07:45.511Z,1015.51
2019-04-19T04:08:48.530Z,1015.55
2019-04-19T04:09:49.047Z,1015.53
2019-04-19T04:10:46.058Z,1015.52
2019-04-19T04:11:55.226Z,1015.57
2019-04-19T04:12:54.665Z,1015.51
2019-04-19T04:14:03.372Z,1015.57
2019-04-19T04:15:00.322Z,1015.56
2019-04-19T04:16:02.840Z,1015.54
2019-04-19T04:16:49.000Z,1015.55
2019-04-19T04:17:45.785Z,1015.60
2019-04-19T04:18:47.127Z,1015.54
2019-04-19T04:19:46.390Z,1015.59
2019-04-19T04:20:50.943Z,1015.60
2019-04-19T04:21:50.665Z,1015.55
2019-04-19T04:22:48.243Z,1015.60
2019-04-19T04:23:58.949Z,1015.63
2019-04-19T04:24:59.579Z,1015.67
2019-04-19T04:25:57.300Z,1015.70
2019-04-19T04:26:59.062Z,1015.65
2019-04-19T04:27:58.686Z,1015.68
2019-04-19T04:28:59.488Z,1015.69
2019-04-19T04:30:00.210Z,1015.70
2019-04-19T04:31:00.803Z,1015.64
2019-04-19T04:32:01.563Z,1015.76
2019-04-19T04:33:00.495Z,1015.69
2019-04-19T04:34:03.021Z,1015.72
2019-04-19T04:35:08.795Z,1015.74
2019-04-19T04:36:11.761Z,1015.69
2019-04-19T04:37:06.382Z,1015.64
2019-04-19T04:38:04.914Z,1015.65
2019-04-19T04:38:53.048Z,1015.69
2019-04-19T04:39:53.459Z,1015.68
2019-04-19T04:40:52.853Z,1015.77
2019-04-19T04:42:05.674Z,1015.65
2019-04-19T04:44:13.549Z,1015.72
2019-04-19T04:45:18.763Z,1015.70
2019-04-19T04:46:33.775Z,1015.74
2019-04-19T04:47:15.392Z,1015.72
2019-04-19T04:48:10.229Z,1015.79
2019-04-19T04:49:24.536Z,1015.80
2019-04-19T04:51:15.839Z,1015.75
2019-04-19T04:52:04.207Z,1015.82
2019-04-19T04:53:55.396Z,1015.81
2019-04-19T04:54:56.521Z,1015.85
2019-04-19T04:56:02.080Z,1015.77
2019-04-19T04:57:05.255Z,1015.85
2019-04-19T04:58:00.505Z,1015.85
2019-04-19T04:58:58.304Z,1015.85
2019-04-19T04:59:58.896Z,1015.93
2019-04-19T05:01:05.253Z,1015.92
2019-04-19T05:02:06.709Z,1015.83
2019-04-19T05:03:12.849Z,1015.95
2019-04-19T05:04:11.799Z,1015.94
2019-04-19T05:05:16.769Z,1015.93
2019-04-19T05:06:17.794Z,1015.86
2019-04-19T05:07:24.385Z,1015.97
2019-04-19T05:08:19.694Z,1015.96
2019-04-19T05:09:22.580Z,1016.00
2019-04-19T05:10:14.801Z,1016.02
2019-04-19T05:11:16.602Z,1015.94
2019-04-19T05:12:18.724Z,1016.09
2019-04-19T05:13:22.495Z,1016.07
2019-04-19T05:15:24.754Z,1016.15
2019-04-19T05:16:29.456Z,1016.16
2019-04-19T05:17:33.248Z,1016.11
2019-04-19T05:19:19.835Z,1016.22
2019-04-19T05:20:21.149Z,1016.22
2019-04-19T05:22:18.211Z,1016.12
2019-04-19T05:23:19.705Z,1016.17
2019-04-19T05:24:22.099Z,1016.18
2019-04-19T05:25:31.333Z,1016.25
2019-04-19T05:26:37.444Z,1016.18
2019-04-19T05:27:27.968Z,1016.25
2019-04-19T05:28:21.396Z,1016.25
2019-04-19T05:29:18.507Z,1016.24
2019-04-19T05:30:04.586Z,1016.30
2019-04-19T05:31:09.078Z,1016.32
2019-04-19T05:32:13.352Z,1016.31
2019-04-19T05:34:32.483Z,1016.26
2019-04-19T05:35:15.681Z,1016.28
2019-04-19T05:36:26.095Z,1016.32
2019-04-19T05:37:18.646Z,1016.38
2019-04-19T05:38:22.248Z,1016.32
2019-04-19T05:39:30.362Z,1016.39
2019-04-19T05:40:24.290Z,1016.33
2019-04-19T05:41:14.694Z,1016.37
2019-04-19T05:42:21.385Z,1016.34
2019-04-19T05:43:48.753Z,1016.34
2019-04-19T05:45:40.521Z,1016.38
2019-04-19T05:46:29.903Z,1016.38
2019-04-19T05:47:23.886Z,1016.40
2019-04-19T05:48:27.616Z,1016.30
2019-04-19T05:49:25.229Z,1016.42
2019-04-19T05:50:30.532Z,1016.35
2019-04-19T05:51:33.999Z,1016.39
2019-04-19T05:52:30.064Z,1016.38
2019-04-19T05:53:19.575Z,1016.39
2019-04-19T05:54:12.400Z,1016.43
2019-04-19T05:55:10.318Z,1016.45
2019-04-19T05:56:09.697Z,1016.46
2019-04-19T05:57:31.019Z,1016.47
2019-04-19T05:58:20.262Z,1016.45
2019-04-19T05:59:17.378Z,1016.50
2019-04-19T06:00:25.948Z,1016.48
2019-04-19T06:01:30.420Z,1016.47
2019-04-19T06:02:21.847Z,1016.53
2019-04-19T06:03:21.164Z,1016.38
2019-04-19T06:04:32.324Z,1016.40
2019-04-19T06:05:36.666Z,1016.46
2019-04-19T06:06:37.559Z,1016.53
2019-04-19T06:07:31.766Z,1016.43
2019-04-19T06:08:21.009Z,1016.46
2019-04-19T06:09:13.797Z,1016.52
2019-04-19T06:10:14.628Z,1016.44
2019-04-19T06:11:16.124Z,1016.51
2019-04-19T06:12:19.725Z,1016.49
2019-04-19T06:13:17.103Z,1016.53
2019-04-19T06:14:41.027Z,1016.52
2019-04-19T06:15:45.127Z,1016.55
2019-04-19T06:16:36.420Z,1016.53
2019-04-19T06:17:30.840Z,1016.56
2019-04-19T06:18:29.279Z,1016.48
2019-04-19T06:19:35.364Z,1016.50
2019-04-19T06:20:33.978Z,1016.54
2019-04-19T06:21:32.686Z,1016.44
2019-04-19T06:22:35.432Z,1016.59
2019-04-19T06:23:40.021Z,1016.54
2019-04-19T06:24:36.851Z,1016.53
2019-04-19T06:25:47.719Z,1016.54
2019-04-19T06:26:53.765Z,1016.57
2019-04-19T06:27:52.898Z,1016.55
2019-04-19T06:28:44.160Z,1016.61
2019-04-19T06:29:45.049Z,1016.59
2019-04-19T06:30:41.471Z,1016.58
2019-04-19T06:31:39.611Z,1016.53
2019-04-19T06:32:40.000Z,1016.52
2019-04-19T06:33:38.783Z,1016.48
2019-04-19T06:34:36.270Z,1016.56
2019-04-19T06:35:32.593Z,1016.61
2019-04-19T06:36:20.997Z,1016.63
2019-04-19T06:37:24.730Z,1016.55
2019-04-19T06:38:22.540Z,1016.55
2019-04-19T06:39:22.611Z,1016.60
2019-04-19T06:40:26.530Z,1016.59
2019-04-19T06:41:25.459Z,1016.58
2019-04-19T06:42:31.935Z,1016.67
2019-04-19T06:43:36.274Z,1016.63
2019-04-19T06:44:47.426Z,1016.69
2019-04-19T06:45:42.084Z,1016.66
2019-04-19T06:46:31.793Z,1016.62
2019-04-19T06:47:32.020Z,1016.62
2019-04-19T06:48:26.987Z,1016.61
2019-04-19T06:49:27.701Z,1016.69
2019-04-19T06:50:30.102Z,1016.71
2019-04-19T06:51:32.788Z,1016.62
2019-04-19T06:52:29.393Z,1016.67
2019-04-19T06:53:31.043Z,1016.69
2019-04-19T06:54:33.076Z,1016.65
2019-04-19T06:55:31.725Z,1016.68
2019-04-19T06:56:31.765Z,1016.60
2019-04-19T06:57:32.333Z,1016.66
2019-04-19T06:58:32.748Z,1016.66
2019-04-19T06:59:41.962Z,1016.69
2019-04-19T07:00:42.503Z,1016.71
2019-04-19T07:01:36.519Z,1016.70
2019-04-19T07:02:28.397Z,1016.69
2019-04-19T07:03:27.895Z,1016.68
2019-04-19T07:04:27.735Z,1016.65
2019-04-19T07:05:40.334Z,1016.74
2019-04-19T07:06:43.021Z,1016.79
2019-04-19T07:07:50.760Z,1016.81
2019-04-19T07:09:02.801Z,1016.74
2019-04-19T07:09:52.425Z,1016.72
2019-04-19T07:10:56.239Z,1016.75
2019-04-19T07:11:51.719Z,1016.76
2019-04-19T07:12:46.834Z,1016.81
2019-04-19T07:13:40.532Z,1016.72
2019-04-19T07:14:33.703Z,1016.67
2019-04-19T07:15:55.308Z,1016.79
2019-04-19T07:16:54.112Z,1016.77
2019-04-19T07:17:47.367Z,1016.83
2019-04-19T07:18:44.960Z,1016.82
2019-04-19T07:19:52.852Z,1016.70
2019-04-19T07:20:48.605Z,1016.75
2019-04-19T07:21:46.940Z,1016.81
2019-04-19T07:22:49.414Z,1016.79
2019-04-19T07:24:58.394Z,1016.89
2019-04-19T07:26:02.527Z,1016.84
2019-04-19T07:26:56.631Z,1016.85
2019-04-19T07:27:47.744Z,1016.84
2019-04-19T07:28:37.227Z,1016.83
2019-04-19T07:29:35.738Z,1016.94
2019-04-19T07:30:35.036Z,1016.85
2019-04-19T07:31:36.931Z,1016.81
2019-04-19T07:32:43.854Z,1016.78
2019-04-19T07:33:47.477Z,1016.85
2019-04-19T07:34:52.998Z,1016.86
2019-04-19T07:36:00.919Z,1016.96
2019-04-19T07:36:59.460Z,1016.90
2019-04-19T07:37:58.841Z,1016.95
2019-04-19T07:38:57.542Z,1016.90
2019-04-19T07:40:55.549Z,1016.95
2019-04-19T07:42:02.042Z,1016.89
2019-04-19T07:42:56.541Z,1017.00
2019-04-19T07:43:51.344Z,1016.94
2019-04-19T07:44:46.032Z,1016.94
2019-04-19T07:46:03.934Z,1016.97
2019-04-19T07:46:59.336Z,1017.06
2019-04-19T07:47:48.920Z,1016.96
2019-04-19T07:48:39.112Z,1016.96
2019-04-19T07:49:49.514Z,1016.94
2019-04-19T07:51:52.085Z,1017.01
2019-04-19T07:53:46.292Z,1016.99
2019-04-19T07:54:42.291Z,1017.01
2019-04-19T07:55:54.965Z,1017.03
2019-04-19T07:56:51.771Z,1017.06
2019-04-19T07:58:16.442Z,1016.97
2019-04-19T07:59:07.878Z,1016.98
2019-04-19T08:00:15.167Z,1017.08
2019-04-19T08:02:12.945Z,1017.01
2019-04-19T08:03:11.256Z,1017.00
2019-04-19T08:05:10.845Z,1017.08
2019-04-19T08:06:09.989Z,1016.98
2019-04-19T08:08:17.805Z,1017.09
2019-04-19T08:09:13.650Z,1017.15
2019-04-19T08:10:08.953Z,1017.14
2019-04-19T08:11:16.945Z,1017.07
2019-04-19T08:13:21.613Z,1017.11
2019-04-19T08:15:15.344Z,1017.11
2019-04-19T08:17:40.449Z,1017.08
2019-04-19T08:28:02.580Z,1017.19
2019-04-19T08:28:58.994Z,1017.04
2019-04-19T08:29:58.009Z,1017.12
2019-04-19T08:30:55.905Z,1017.12
2019-04-19T08:31:52.790Z,1017.06
2019-04-19T08:32:51.958Z,1017.16
2019-04-19T08:33:53.067Z,1017.04
2019-04-19T08:34:58.598Z,1017.08
2019-04-19T08:35:56.166Z,1017.15
2019-04-19T08:36:58.602Z,1017.08
2019-04-19T08:38:02.468Z,1017.11
2019-04-19T08:39:13.967Z,1017.11
2019-04-19T08:40:16.036Z,1017.13
2019-04-19T08:41:09.064Z,1017.10
2019-04-19T08:42:16.198Z,1017.12
2019-04-19T08:43:17.372Z,1017.08
2019-04-19T08:44:16.788Z,1017.10
2019-04-19T08:45:01.746Z,1017.05
2019-04-19T08:45:56.244Z,1017.02
2019-04-19T08:46:57.738Z,1017.03
2019-04-19T08:48:06.544Z,1017.10
2019-04-19T08:49:02.358Z,1017.09
2019-04-19T08:50:02.667Z,1017.06
2019-04-19T08:50:58.463Z,1016.99
2019-04-19T08:51:59.936Z,1017.03
2019-04-19T08:53:07.642Z,1017.07
2019-04-19T08:54:23.075Z,1017.00
2019-04-19T08:55:19.331Z,1016.97
2019-04-19T08:56:11.620Z,1017.04
2019-04-19T08:57:07.449Z,1017.09
2019-04-19T08:58:07.157Z,1016.98
2019-04-19T08:59:33.148Z,1016.95
2019-04-19T09:00:25.982Z,1016.99
2019-04-19T09:01:28.097Z,1016.96
2019-04-19T09:02:22.076Z,1016.98
2019-04-19T09:03:17.277Z,1017.12
2019-04-19T09:04:20.743Z,1017.07
2019-04-19T09:05:18.359Z,1016.93
2019-04-19T09:08:24.030Z,1017.05
2019-04-19T09:09:28.198Z,1017.01
2019-04-19T09:10:48.336Z,1017.05
2019-04-19T09:11:21.013Z,1017.04
2019-04-19T09:12:21.176Z,1017.02
2019-04-19T09:13:37.883Z,1017.01
2019-04-19T09:14:24.588Z,1016.99
2019-04-19T09:15:20.302Z,1017.02
2019-04-19T09:16:20.590Z,1017.00
2019-04-19T09:17:24.635Z,1017.00
2019-04-19T09:19:35.856Z,1016.99
2019-04-19T09:20:28.047Z,1016.98
2019-04-19T09:21:23.000Z,1016.99
2019-04-19T09:22:24.300Z,1017.01
2019-04-19T09:23:20.246Z,1016.96
2019-04-19T09:24:09.998Z,1017.04
2019-04-19T09:25:19.076Z,1016.95
2019-04-19T09:26:23.523Z,1016.97
2019-04-19T09:27:33.982Z,1017.06
2019-04-19T09:28:37.873Z,1017.05
2019-04-19T09:29:29.010Z,1017.00
2019-04-19T09:30:27.677Z,1016.99
2019-04-19T09:31:31.886Z,1016.95
2019-04-19T09:32:23.693Z,1016.99
2019-04-19T09:33:18.314Z,1016.91
2019-04-19T09:34:19.754Z,1016.96
2019-04-19T09:35:12.837Z,1017.00
2019-04-19T09:36:13.807Z,1017.03
2019-04-19T09:37:20.022Z,1016.92
2019-04-19T09:38:28.914Z,1016.93
2019-04-19T09:39:25.410Z,1016.96
2019-04-19T09:40:27.483Z,1016.95
2019-04-19T09:41:23.692Z,1016.90
2019-04-19T09:43:31.028Z,1017.04
2019-04-19T09:44:25.819Z,1016.94
2019-04-19T09:45:15.117Z,1016.91
2019-04-19T09:46:21.183Z,1016.97
2019-04-19T09:47:14.301Z,1016.87
2019-04-19T09:48:36.331Z,1016.89
2019-04-19T09:49:32.205Z,1016.95
2019-04-19T09:50:36.594Z,1016.91
2019-04-19T09:51:33.919Z,1016.86
2019-04-19T09:52:54.106Z,1016.83
2019-04-19T09:53:44.769Z,1016.94
2019-04-19T09:54:38.862Z,1016.92
2019-04-19T09:55:40.167Z,1016.92
2019-04-19T09:56:29.137Z,1016.91
2019-04-19T09:57:41.395Z,1016.89
2019-04-19T09:58:36.856Z,1016.95
2019-04-19T09:59:27.169Z,1016.86
2019-04-19T10:00:22.453Z,1016.95
2019-04-19T10:01:21.227Z,1016.85
2019-04-19T10:02:25.329Z,1016.79
2019-04-19T10:03:30.640Z,1016.84
2019-04-19T10:04:17.011Z,1016.79
2019-04-19T10:05:17.036Z,1016.85
2019-04-19T10:06:23.046Z,1016.77
2019-04-19T10:07:18.756Z,1016.86
2019-04-19T10:08:17.700Z,1016.83
2019-04-19T10:09:23.755Z,1016.89
2019-04-19T10:10:20.788Z,1016.85
2019-04-19T10:11:19.214Z,1016.78
2019-04-19T10:12:21.784Z,1016.76
2019-04-19T10:13:23.624Z,1016.78
2019-04-19T10:27:19.201Z,1016.71
2019-04-19T10:27:31.687Z,1016.82
2019-04-19T10:28:32.246Z,1016.66
2019-04-19T10:29:38.065Z,1016.75
2019-04-19T10:30:32.865Z,1016.65
2019-04-19T10:31:33.683Z,1016.69
2019-04-19T10:32:34.881Z,1016.71
2019-04-19T10:33:41.273Z,1016.75
2019-04-19T10:34:34.572Z,1016.74
2019-04-19T10:35:35.602Z,1016.76
2019-04-19T10:36:36.404Z,1016.74
2019-04-19T10:37:35.746Z,1016.83
2019-04-19T10:38:35.868Z,1016.67
2019-04-19T10:39:35.779Z,1016.77
2019-04-19T10:40:36.097Z,1016.70
2019-04-19T10:41:36.650Z,1016.70
2019-04-19T10:42:39.016Z,1016.71
2019-04-19T10:43:43.314Z,1016.68
2019-04-19T10:44:38.199Z,1016.68
2019-04-19T10:45:38.319Z,1016.67
2019-04-19T10:46:38.621Z,1016.61
2019-04-19T10:47:38.178Z,1016.72
2019-04-19T10:48:38.935Z,1016.65
2019-04-19T10:49:44.873Z,1016.63
2019-04-19T10:50:44.310Z,1016.59
2019-04-19T10:51:39.693Z,1016.64
2019-04-19T10:52:39.602Z,1016.64
2019-04-19T10:53:39.873Z,1016.66
2019-04-19T10:54:41.187Z,1016.63
2019-04-19T10:55:40.872Z,1016.61
2019-04-19T10:56:41.038Z,1016.60
2019-04-19T10:57:41.226Z,1016.70
2019-04-19T10:58:42.755Z,1016.73
2019-04-19T10:59:42.659Z,1016.65
2019-04-19T11:00:42.995Z,1016.71
2019-04-19T11:01:43.176Z,1016.67
2019-04-19T11:02:42.486Z,1016.55
2019-04-19T11:03:42.760Z,1016.62
2019-04-19T11:04:42.988Z,1016.63
2019-04-19T11:05:43.233Z,1016.55
2019-04-19T11:06:43.350Z,1016.56
2019-04-19T11:07:43.769Z,1016.51
2019-04-19T11:08:44.597Z,1016.47
2019-04-19T11:09:44.128Z,1016.51
2019-04-19T11:10:45.449Z,1016.45
2019-04-19T11:11:45.601Z,1016.42
2019-04-19T11:12:45.006Z,1016.44
2019-04-19T11:13:45.741Z,1016.52
2019-04-19T11:14:46.170Z,1016.53
2019-04-19T11:15:46.636Z,1016.61
2019-04-19T11:16:45.509Z,1016.56
2019-04-19T11:17:45.773Z,1016.58
2019-04-19T11:18:46.239Z,1016.42
2019-04-19T11:20:02.263Z,1016.44
2019-04-19T11:20:50.448Z,1016.48
2019-04-19T11:21:47.693Z,1016.46
2019-04-19T11:22:48.118Z,1016.56
2019-04-19T11:23:47.681Z,1016.45
2019-04-19T11:24:48.051Z,1016.51
2019-04-19T11:25:50.928Z,1016.44
2019-04-19T11:26:48.729Z,1016.50
2019-04-19T11:27:51.257Z,1016.44
2019-04-19T11:28:49.353Z,1016.45
2019-04-19T11:29:52.863Z,1016.47
2019-04-19T11:30:50.814Z,1016.45
2019-04-19T11:31:50.318Z,1016.51
2019-04-19T11:32:51.031Z,1016.40
2019-04-19T11:33:50.993Z,1016.41
2019-04-19T11:34:51.429Z,1016.43
2019-04-19T11:35:53.075Z,1016.41
2019-04-19T11:36:51.970Z,1016.38
2019-04-19T11:37:53.187Z,1016.42
2019-04-19T11:38:52.308Z,1016.43
2019-04-19T11:39:53.052Z,1016.33
2019-04-19T11:40:53.297Z,1016.44
2019-04-19T11:41:52.958Z,1016.40
2019-04-19T11:42:53.189Z,1016.46
2019-04-19T11:43:53.718Z,1016.38
2019-04-19T11:44:54.084Z,1016.39
2019-04-19T11:45:54.064Z,1016.41
2019-04-19T11:46:54.331Z,1016.38
2019-04-19T11:47:55.406Z,1016.28
2019-04-19T11:48:55.459Z,1016.35
2019-04-19T11:49:55.567Z,1016.40
2019-04-19T11:50:55.988Z,1016.31
2019-04-19T11:51:55.981Z,1016.36
2019-04-19T11:52:56.221Z,1016.36
2019-04-19T11:53:56.830Z,1016.38
2019-04-19T11:54:57.101Z,1016.34
2019-04-19T11:55:58.296Z,1016.37
2019-04-19T11:57:02.429Z,1016.29
2019-04-19T11:57:58.737Z,1016.24
2019-04-19T11:58:58.335Z,1016.28
2019-04-19T11:59:59.397Z,1016.26
2019-04-19T12:01:00.135Z,1016.23
2019-04-19T12:01:59.886Z,1016.26
2019-04-19T12:03:00.183Z,1016.31
2019-04-19T12:04:00.495Z,1016.30
2019-04-19T12:05:12.018Z,1016.34
2019-04-19T12:06:00.399Z,1016.32
2019-04-19T12:07:02.718Z,1016.33
2019-04-19T12:08:00.806Z,1016.25
2019-04-19T12:09:02.601Z,1016.32
2019-04-19T12:10:02.946Z,1016.33
2019-04-19T12:11:02.226Z,1016.28
2019-04-19T12:12:01.750Z,1016.18
2019-04-19T12:13:03.434Z,1016.18
2019-04-19T12:14:03.780Z,1016.15
2019-04-19T12:15:02.489Z,1016.23
2019-04-19T12:16:03.115Z,1016.27
2019-04-19T12:17:02.892Z,1016.11
2019-04-19T12:18:02.646Z,1016.25
2019-04-19T12:19:04.345Z,1016.30
2019-04-19T12:20:05.821Z,1016.32
2019-04-19T12:21:05.023Z,1016.30
2019-04-19T12:22:05.285Z,1016.33
2019-04-19T12:23:04.236Z,1016.40
2019-04-19T12:24:04.708Z,1016.33
2019-04-19T12:25:05.746Z,1016.32
2019-04-19T12:26:06.011Z,1016.22
2019-04-19T12:27:05.475Z,1016.25
2019-04-19T12:28:05.864Z,1016.11
2019-04-19T12:29:07.381Z,1016.20
2019-04-19T12:30:07.529Z,1016.07
2019-04-19T12:31:07.390Z,1016.10
2019-04-19T12:32:07.599Z,1016.19
2019-04-19T12:33:07.404Z,1016.19
2019-04-19T12:34:09.668Z,1016.17
2019-04-19T12:35:08.868Z,1016.24
2019-04-19T12:36:08.245Z,1016.26
2019-04-19T12:37:09.128Z,1016.19
2019-04-19T12:38:10.155Z,1016.25
2019-04-19T12:39:09.498Z,1016.27
2019-04-19T12:40:10.829Z,1016.32
2019-04-19T12:41:10.170Z,1016.30
2019-04-19T12:42:11.269Z,1016.17
2019-04-19T12:43:11.893Z,1016.24
2019-04-19T12:44:11.093Z,1016.21
2019-04-19T12:45:13.234Z,1016.27
2019-04-19T12:46:12.800Z,1016.24
2019-04-19T12:47:12.961Z,1016.27
2019-04-19T12:48:12.224Z,1016.29
2019-04-19T12:49:12.614Z,1016.20
2019-04-19T12:50:14.636Z,1016.25
2019-04-19T12:51:14.149Z,1016.22
2019-04-19T12:52:13.556Z,1016.21
2019-04-19T12:53:13.303Z,1016.22
2019-04-19T12:54:14.141Z,1016.19
2019-04-19T12:55:15.350Z,1016.14
2019-04-19T12:56:18.022Z,1016.11
2019-04-19T12:57:16.047Z,1016.01
2019-04-19T12:58:15.468Z,1016.10
2019-04-19T12:59:18.120Z,1016.05
2019-04-19T13:00:16.197Z,1016.10
2019-04-19T13:01:15.199Z,1016.12
2019-04-19T13:02:15.823Z,1016.09
2019-04-19T13:03:16.230Z,1016.05